createdAt,value
2022-10-02T00:01:44.033Z,19.20
2022-10-02T00:06:48.479Z,16.10
2022-10-02T00:11:54.258Z,16.40
2022-10-02T00:16:58.634Z,17.80
2022-10-02T00:22:04.154Z,16.67
2022-10-02T00:27:18.863Z,17.40
2022-10-02T00:32:33.105Z,20.27
2022-10-02T00:37:53.665Z,19.92
2022-10-02T00:43:17.903Z,19.83
2022-10-02T00:48:32.012Z,15.93
2022-10-02T00:53:52.819Z,18.88
2022-10-02T00:59:30.494Z,20.20
2022-10-02T01:04:35.461Z,15.50
2022-10-02T01:09:38.740Z,27.05
2022-10-02T01:14:41.646Z,16.55
2022-10-02T01:19:44.012Z,16.38
2022-10-02T01:24:53.613Z,18.45
2022-10-02T01:30:00.625Z,15.80
2022-10-02T01:35:03.245Z,15.95
2022-10-02T01:40:11.655Z,20.02
2022-10-02T01:45:14.293Z,17.25
2022-10-02T01:50:25.352Z,18.88
2022-10-02T01:55:33.551Z,16.88
2022-10-02T02:00:52.827Z,15.38
2022-10-02T02:06:07.927Z,17.10
2022-10-02T02:11:18.953Z,16.30
2022-10-02T02:16:46.816Z,18.05
2022-10-02T02:22:04.479Z,14.15
2022-10-02T02:27:08.048Z,15.40
2022-10-02T02:32:11.653Z,15.32
2022-10-02T02:37:19.254Z,13.85
2022-10-02T02:47:35.127Z,15.80
2022-10-02T02:52:45.773Z,12.23
2022-10-02T02:57:56.532Z,13.63
2022-10-02T03:02:58.990Z,14.07
2022-10-02T03:08:04.615Z,11.75
2022-10-02T03:13:21.994Z,11.48
2022-10-02T03:18:37.687Z,12.13
2022-10-02T03:24:01.831Z,13.35
2022-10-02T03:29:09.615Z,11.52
2022-10-02T03:34:12.636Z,12.50
2022-10-02T03:39:30.471Z,11.10
2022-10-02T03:49:35.333Z,10.73
2022-10-02T03:54:38.001Z,9.68
2022-10-02T04:00:02.182Z,10.00
2022-10-02T04:05:29.958Z,9.38
2022-10-02T04:10:41.335Z,11.82
2022-10-02T04:15:52.836Z,12.55
2022-10-02T04:21:07.905Z,9.40
2022-10-02T04:26:20.631Z,10.10
2022-10-02T04:31:27.491Z,10.00
2022-10-02T04:36:41.349Z,7.55
2022-10-02T04:42:06.107Z,10.77
2022-10-02T04:47:11.315Z,10.80
2022-10-02T04:52:25.165Z,9.93
2022-10-02T04:58:00.428Z,10.80
2022-10-02T05:03:14.791Z,11.90
2022-10-02T05:08:19.846Z,14.88
2022-10-02T05:13:55.390Z,11.77
2022-10-02T05:19:29.934Z,16.08
2022-10-02T05:24:32.878Z,13.63
2022-10-02T05:30:05.312Z,13.38
2022-10-02T05:35:16.758Z,16.15
2022-10-02T05:40:23.015Z,13.80
2022-10-02T05:45:53.749Z,16.65
2022-10-02T05:51:04.450Z,20.52
2022-10-02T05:56:12.403Z,14.65
2022-10-02T06:01:20.095Z,15.07
2022-10-02T06:06:54.424Z,12.85
2022-10-02T06:12:00.696Z,15.27
2022-10-02T06:17:16.114Z,15.20
2022-10-02T06:22:30.763Z,14.40
2022-10-02T06:27:48.533Z,13.57
2022-10-02T06:33:02.118Z,14.18
2022-10-02T06:38:17.046Z,13.75
2022-10-02T06:43:22.041Z,15.13
2022-10-02T06:48:33.847Z,15.77
2022-10-02T06:53:57.284Z,17.25
2022-10-02T06:59:31.786Z,10.57
2022-10-02T07:04:42.306Z,12.88
2022-10-02T07:10:18.677Z,11.93
2022-10-02T07:15:31.538Z,11.48
2022-10-02T07:21:15.765Z,15.35
2022-10-02T07:26:43.241Z,11.02
2022-10-02T07:31:46.276Z,11.03
2022-10-02T07:37:15.085Z,12.88
2022-10-02T07:42:30.724Z,13.80
2022-10-02T07:47:43.227Z,11.03
2022-10-02T07:53:06.513Z,6.95
2022-10-02T07:58:19.281Z,12.02
2022-10-02T08:03:52.713Z,11.75
2022-10-02T08:08:55.076Z,9.57
2022-10-02T08:14:03.570Z,6.65
2022-10-02T08:19:14.580Z,8.88
2022-10-02T08:24:26.849Z,13.27
2022-10-02T08:29:53.943Z,7.07
2022-10-02T08:34:56.686Z,7.75
2022-10-02T08:40:23.951Z,9.07
2022-10-02T08:45:47.541Z,6.90
2022-10-02T08:51:10.117Z,9.80
2022-10-02T08:56:34.318Z,9.27
2022-10-02T09:02:31.430Z,6.25
2022-10-02T09:08:09.985Z,5.72
2022-10-02T09:18:48.280Z,6.88
2022-10-02T09:24:02.794Z,5.55
2022-10-02T09:29:35.138Z,5.95
2022-10-02T09:34:52.276Z,7.80
2022-10-02T09:40:06.914Z,5.88
2022-10-02T09:45:36.597Z,9.25
2022-10-02T09:51:18.582Z,8.18
2022-10-02T09:56:45.663Z,6.93
2022-10-02T10:02:03.918Z,5.50
2022-10-02T10:07:52.528Z,6.53
2022-10-02T10:13:22.396Z,9.25
2022-10-02T10:18:51.997Z,7.70
2022-10-02T10:23:54.351Z,6.05
2022-10-02T10:29:07.712Z,11.98
2022-10-02T10:34:46.305Z,8.18
2022-10-02T10:40:25.072Z,5.32
2022-10-02T10:45:29.809Z,6.82
2022-10-02T10:50:46.813Z,4.15
2022-10-02T10:55:52.143Z,7.63
2022-10-02T11:01:18.937Z,4.55
2022-10-02T11:06:38.956Z,10.13
2022-10-02T11:11:45.141Z,15.15
2022-10-02T11:17:05.798Z,10.43
2022-10-02T11:22:17.062Z,9.02
2022-10-02T11:27:39.350Z,3.75
2022-10-02T11:33:16.792Z,7.85
2022-10-02T11:39:00.811Z,8.73
2022-10-02T11:44:16.957Z,4.45
2022-10-02T11:49:37.853Z,5.15
2022-10-02T11:54:59.856Z,9.63
2022-10-02T12:00:13.498Z,7.10
2022-10-02T12:05:25.583Z,7.00
2022-10-02T12:10:46.558Z,8.52
2022-10-02T12:16:04.107Z,6.13
2022-10-02T12:21:40.043Z,7.70
2022-10-02T12:26:59.082Z,5.43
2022-10-02T12:32:10.966Z,8.13
2022-10-02T12:37:25.830Z,10.02
2022-10-02T12:42:41.145Z,5.90
2022-10-02T12:48:00.601Z,9.18
2022-10-02T12:53:17.889Z,7.95
2022-10-02T12:58:29.554Z,6.53
2022-10-02T13:03:44.125Z,7.68
2022-10-02T13:08:55.386Z,7.97
2022-10-02T13:14:07.478Z,7.65
2022-10-02T13:19:22.042Z,5.88
2022-10-02T13:24:46.892Z,6.38
2022-10-02T13:30:00.454Z,8.52
2022-10-02T13:35:25.567Z,7.72
2022-10-02T13:40:29.653Z,7.22
2022-10-02T13:45:42.280Z,6.65
2022-10-02T13:50:56.830Z,8.75
2022-10-02T13:56:34.548Z,5.80
2022-10-02T14:02:10.605Z,8.50
2022-10-02T14:07:28.715Z,3.45
2022-10-02T14:12:55.771Z,4.80
2022-10-02T14:18:07.266Z,8.73
2022-10-02T14:23:30.597Z,6.25
2022-10-02T14:28:57.170Z,3.45
2022-10-02T14:34:57.826Z,4.82
2022-10-02T14:40:02.371Z,5.60
2022-10-02T14:45:19.318Z,3.28
2022-10-02T14:51:09.733Z,4.33
2022-10-02T14:56:23.760Z,10.85
2022-10-02T15:01:27.080Z,4.43
2022-10-02T15:06:35.187Z,4.22
2022-10-02T15:11:37.758Z,5.68
2022-10-02T15:17:20.849Z,6.28
2022-10-02T15:22:27.088Z,5.60
2022-10-02T15:27:44.802Z,4.43
2022-10-02T15:33:03.484Z,6.18
2022-10-02T15:38:31.500Z,25.75
2022-10-02T15:43:39.357Z,30.63
2022-10-02T15:49:36.806Z,5.63
2022-10-02T15:54:57.591Z,2.95
2022-10-02T16:00:10.863Z,2.40
2022-10-02T16:05:40.425Z,2.92
2022-10-02T16:11:26.638Z,4.10
2022-10-02T16:17:07.683Z,6.75
2022-10-02T16:22:17.930Z,6.07
2022-10-02T16:27:51.521Z,8.80
2022-10-02T16:33:23.846Z,6.20
2022-10-02T16:38:41.144Z,6.47
2022-10-02T16:43:49.251Z,4.65
2022-10-02T16:48:51.906Z,5.95
2022-10-02T16:54:37.191Z,3.42
2022-10-02T16:59:45.030Z,5.65
2022-10-02T17:05:12.442Z,5.50
2022-10-02T17:10:22.077Z,6.03
2022-10-02T17:15:33.544Z,12.43
2022-10-02T17:20:47.296Z,13.02
2022-10-02T17:26:01.523Z,19.38
2022-10-02T17:31:34.693Z,16.58
2022-10-02T17:36:54.619Z,13.35
2022-10-02T17:42:10.048Z,11.38
2022-10-02T17:47:38.347Z,7.57
2022-10-02T17:53:05.271Z,8.65
2022-10-02T17:58:37.749Z,7.20
2022-10-02T18:03:48.947Z,9.13
2022-10-02T18:09:00.013Z,14.13
2022-10-02T18:14:11.443Z,8.73
2022-10-02T18:19:18.396Z,11.82
2022-10-02T18:24:42.824Z,10.77
2022-10-02T18:30:09.775Z,11.63
2022-10-02T18:35:22.191Z,13.40
2022-10-02T18:40:56.215Z,12.07
2022-10-02T18:46:07.808Z,7.65
2022-10-02T18:51:39.406Z,10.60
2022-10-02T18:56:46.835Z,7.22
2022-10-02T19:07:16.676Z,6.13
2022-10-02T19:12:25.565Z,7.35
2022-10-02T19:17:31.026Z,8.25
2022-10-02T19:22:38.587Z,7.88
2022-10-02T19:27:42.290Z,11.82
2022-10-02T19:32:48.976Z,8.63
2022-10-02T19:37:53.133Z,8.80
2022-10-02T19:43:04.827Z,11.50
2022-10-02T19:48:09.993Z,8.77
2022-10-02T19:53:24.390Z,9.65
2022-10-02T19:58:49.917Z,12.98
2022-10-02T20:03:57.351Z,7.03
2022-10-02T20:09:13.399Z,11.80
2022-10-02T20:14:19.392Z,15.68
2022-10-02T20:19:26.482Z,15.15
2022-10-02T20:24:59.470Z,7.65
2022-10-02T20:30:12.894Z,9.93
2022-10-02T20:35:35.686Z,10.73
2022-10-02T20:40:38.313Z,7.18
2022-10-02T20:45:53.143Z,9.23
2022-10-02T20:56:43.254Z,10.48
2022-10-02T21:02:21.182Z,9.25
2022-10-02T21:07:54.178Z,8.88
2022-10-02T21:13:24.557Z,12.98
2022-10-02T21:18:35.590Z,9.65
2022-10-02T21:23:46.801Z,8.20
2022-10-02T21:29:10.461Z,11.40
2022-10-02T21:34:44.305Z,10.50
2022-10-02T21:39:49.501Z,9.93
2022-10-02T21:45:13.971Z,9.15
2022-10-02T21:50:50.834Z,12.65
2022-10-02T21:56:15.006Z,12.50
2022-10-02T22:01:42.582Z,9.75
2022-10-02T22:07:06.725Z,7.90
2022-10-02T22:12:24.537Z,8.05
2022-10-02T22:22:40.214Z,9.05
2022-10-02T22:27:45.524Z,5.57
2022-10-02T22:33:09.296Z,8.05
2022-10-02T22:38:26.165Z,10.18
2022-10-02T22:43:32.844Z,12.50
2022-10-02T22:48:57.901Z,9.07
2022-10-02T22:54:12.094Z,6.97
2022-10-02T22:59:22.507Z,9.38
2022-10-02T23:04:33.438Z,5.97
2022-10-02T23:10:01.433Z,10.43
2022-10-02T23:20:14.438Z,8.15
2022-10-02T23:25:31.295Z,8.25
2022-10-02T23:30:38.707Z,8.00
2022-10-02T23:41:47.135Z,7.07
2022-10-02T23:46:49.407Z,7.45
2022-10-02T23:52:31.672Z,6.70
2022-10-02T23:57:54.796Z,7.63
